CCGS Neocaligus — CG7677 — position and weather

sailwx.info

Track history (hours):
 
Tides and Currents Weather Stations Pressure Air Temp Water Temp Dewpoint Dewpoint Depression Visibility Wind Speed Wind Dir Waves Ship Positions

CCGS Neocaligus

Last reported at 2016-Sep-27 00:33 UTC. Time now 2016-Sep-27 01:56 UTC.
Position N 49°22' W 123°51'.

Length 23 m; draft 3.5 m.

Type: Fishing. MMSI: 316001759.

Date/timePositionNaut miles runAvg speedWind from/ knotsBaromVisibWave heightAir tempDewpointWater temp
2016-Sep-27 00:33N 49°22' W 123°51'11 2.7
2016-Sep-26 20:27N 49°12' W 123°58'0 0.0
2016-Sep-26 08:14N 49°13' W 123°57'0 0.0
2016-Sep-25 21:32N 49°13' W 123°57'0 0.0
2016-Sep-24 19:25N 49°13' W 123°57'0 0.0
2016-Sep-24 17:32N 49°13' W 123°57'0 0.0
2016-Sep-24 01:22N 49°13' W 123°57'7 8.7
2016-Sep-24 00:34N 49°15' W 123°48'29 5.9
2016-Sep-23 19:33N 49°36' W 123°15'2 1.2
2016-Sep-23 17:33N 49°38' W 123°15'1 1.0
2016-Sep-23 16:31N 49°39' W 123°14'2 2.1
2016-Sep-23 15:30N 49°37' W 123°13'8 3.7
2016-Sep-23 13:25N 49°33' W 123°24'0 0.0
2016-Sep-23 09:31N 49°33' W 123°24'0 0.0
2016-Sep-23 06:31N 49°33' W 123°24'0 0.0
2016-Sep-23 04:31N 49°33' W 123°24'0 0.0
2016-Sep-23 03:31N 49°33' W 123°24'0 0.0
2016-Sep-23 02:31N 49°33' W 123°24'0 0.0
2016-Sep-23 01:32N 49°33' W 123°24'3 3.2
2016-Sep-23 00:30N 49°35' W 123°19'2 1.9
2016-Sep-22 23:33N 49°33' W 123°18'3 0.9
2016-Sep-22 20:33N 49°30' W 123°18'10 1.3
2016-Sep-22 12:29N 49°24' W 123°30'0 0.0
2016-Sep-22 04:32N 49°24' W 123°30'0 0.0
2016-Sep-22 03:32N 49°24' W 123°30'4 1.3
2016-Sep-22 00:33N 49°25' W 123°25'4 4.1
2016-Sep-21 23:33N 49°25' W 123°18'3 2.8
2016-Sep-21 22:33N 49°22' W 123°20'9 2.9
2016-Sep-21 19:33N 49°13' W 123°19'20 6.5
2016-Sep-21 16:33N 48°54' W 123°18'16 2.2
2016-Sep-21 09:27N 48°45' W 123°37'0 0.0
2016-Sep-21 08:33N 48°45' W 123°37'1 0.1
2016-Sep-20 17:31N 48°45' W 123°35'9 3.2
2016-Sep-20 14:33N 48°54' W 123°38'3 3.0
2016-Sep-20 13:25N 48°56' W 123°43'0 0.0
2016-Sep-20 10:22N 48°56' W 123°43'0 0.0
2016-Sep-20 08:31N 48°56' W 123°43'0 0.0
2016-Sep-20 07:19N 48°56' W 123°43'0 0.0
2016-Sep-20 06:22N 48°56' W 123°43'0 0.0
2016-Sep-20 02:31N 48°56' W 123°43'15 1.8
2016-Sep-19 18:28N 49°09' W 123°51'5 0.8
2016-Sep-19 12:12N 49°13' W 123°57'0 0.0
2016-Sep-19 11:23N 49°13' W 123°57'0 0.0
2016-Sep-19 03:18N 49°13' W 123°57'0 0.0
2016-Sep-17 20:29N 49°13' W 123°57'0 0.0
2016-Sep-17 10:17N 49°13' W 123°57'0 0.0
2016-Sep-17 09:23N 49°13' W 123°57'0 0.0
2016-Sep-17 05:29N 49°13' W 123°57'  
Track history (hours):
 
Tides and Currents Weather Stations Pressure Air Temp Water Temp Dewpoint Dewpoint Depression Visibility Wind Speed Wind Dir Waves Ship Positions

CCGS Neocaligus

Last reported at 2016-Sep-27 00:33 UTC. Time now 2016-Sep-27 01:56 UTC.
Position N 49°22' W 123°51'.

Length 23 m; draft 3.5 m.

Type: Fishing. MMSI: 316001759.

Date/timePositionNaut miles runAvg speedWind from/ knotsBaromVisibWave heightAir tempDewpointWater temp
2016-Sep-27 00:33N 49°22' W 123°51'11 2.7
2016-Sep-26 20:27N 49°12' W 123°58'0 0.0
2016-Sep-26 08:14N 49°13' W 123°57'0 0.0
2016-Sep-25 21:32N 49°13' W 123°57'0 0.0
2016-Sep-24 19:25N 49°13' W 123°57'0 0.0
2016-Sep-24 17:32N 49°13' W 123°57'0 0.0
2016-Sep-24 01:22N 49°13' W 123°57'7 8.7
2016-Sep-24 00:34N 49°15' W 123°48'29 5.9
2016-Sep-23 19:33N 49°36' W 123°15'2 1.2
2016-Sep-23 17:33N 49°38' W 123°15'1 1.0
2016-Sep-23 16:31N 49°39' W 123°14'2 2.1
2016-Sep-23 15:30N 49°37' W 123°13'8 3.7
2016-Sep-23 13:25N 49°33' W 123°24'0 0.0
2016-Sep-23 09:31N 49°33' W 123°24'0 0.0
2016-Sep-23 06:31N 49°33' W 123°24'0 0.0
2016-Sep-23 04:31N 49°33' W 123°24'0 0.0
2016-Sep-23 03:31N 49°33' W 123°24'0 0.0
2016-Sep-23 02:31N 49°33' W 123°24'0 0.0
2016-Sep-23 01:32N 49°33' W 123°24'3 3.2
2016-Sep-23 00:30N 49°35' W 123°19'2 1.9
2016-Sep-22 23:33N 49°33' W 123°18'3 0.9
2016-Sep-22 20:33N 49°30' W 123°18'10 1.3
2016-Sep-22 12:29N 49°24' W 123°30'0 0.0
2016-Sep-22 04:32N 49°24' W 123°30'0 0.0
2016-Sep-22 03:32N 49°24' W 123°30'4 1.3
2016-Sep-22 00:33N 49°25' W 123°25'4 4.1
2016-Sep-21 23:33N 49°25' W 123°18'3 2.8
2016-Sep-21 22:33N 49°22' W 123°20'9 2.9
2016-Sep-21 19:33N 49°13' W 123°19'20 6.5
2016-Sep-21 16:33N 48°54' W 123°18'16 2.2
2016-Sep-21 09:27N 48°45' W 123°37'0 0.0
2016-Sep-21 08:33N 48°45' W 123°37'1 0.1
2016-Sep-20 17:31N 48°45' W 123°35'9 3.2
2016-Sep-20 14:33N 48°54' W 123°38'3 3.0
2016-Sep-20 13:25N 48°56' W 123°43'0 0.0
2016-Sep-20 10:22N 48°56' W 123°43'0 0.0
2016-Sep-20 08:31N 48°56' W 123°43'0 0.0
2016-Sep-20 07:19N 48°56' W 123°43'0 0.0
2016-Sep-20 06:22N 48°56' W 123°43'0 0.0
2016-Sep-20 02:31N 48°56' W 123°43'15 1.8
2016-Sep-19 18:28N 49°09' W 123°51'5 0.8
2016-Sep-19 12:12N 49°13' W 123°57'0 0.0
2016-Sep-19 11:23N 49°13' W 123°57'0 0.0
2016-Sep-19 03:18N 49°13' W 123°57'0 0.0
2016-Sep-17 20:29N 49°13' W 123°57'0 0.0
2016-Sep-17 10:17N 49°13' W 123°57'0 0.0
2016-Sep-17 09:23N 49°13' W 123°57'0 0.0
2016-Sep-17 05:29N 49°13' W 123°57'  

Dump ship's entire track history